sensor_id;sensor_type;location;lat;lon;timestamp;pressure;altitude;pressure_sealevel;temperature;humidity
4814;BME280;15375;48.540;9.268;2022-11-20T00:01:13;96839.41;;;5.78;100.00
4814;BME280;15375;48.540;9.268;2022-11-20T00:03:39;96808.69;;;5.48;100.00
4814;BME280;15375;48.540;9.268;2022-11-20T00:06:07;96827.16;;;5.60;100.00
4814;BME280;15375;48.540;9.268;2022-11-20T00:08:33;96837.97;;;5.63;100.00
4814;BME280;15375;48.540;9.268;2022-11-20T00:11:05;96835.28;;;5.60;100.00
4814;BME280;15375;48.540;9.268;2022-11-20T00:13:32;96846.50;;;5.55;100.00
4814;BME280;15375;48.540;9.268;2022-11-20T00:15:59;96843.81;;;5.55;100.00
4814;BME280;15375;48.540;9.268;2022-11-20T00:18:25;96815.72;;;5.31;100.00
4814;BME280;15375;48.540;9.268;2022-11-20T00:20:51;96822.69;;;5.32;100.00
4814;BME280;15375;48.540;9.268;2022-11-20T00:23:16;96805.78;;;5.14;100.00
4814;BME280;15375;48.540;9.268;2022-11-20T00:25:41;96841.63;;;5.29;100.00
4814;BME280;15375;48.540;9.268;2022-11-20T00:28:07;96834.75;;;5.21;100.00
4814;BME280;15375;48.540;9.268;2022-11-20T00:30:32;96801.63;;;4.99;100.00
4814;BME280;15375;48.540;9.268;2022-11-20T00:32:57;96827.78;;;5.20;100.00
4814;BME280;15375;48.540;9.268;2022-11-20T00:35:23;96854.78;;;5.27;100.00
4814;BME280;15375;48.540;9.268;2022-11-20T00:37:48;96827.09;;;5.01;100.00
4814;BME280;15375;48.540;9.268;2022-11-20T00:40:14;96844.44;;;5.07;100.00
4814;BME280;15375;48.540;9.268;2022-11-20T00:42:39;96812.88;;;4.87;100.00
4814;BME280;15375;48.540;9.268;2022-11-20T00:45:05;96858.38;;;5.06;100.00
4814;BME280;15375;48.540;9.268;2022-11-20T00:47:30;96821.78;;;4.80;100.00
4814;BME280;15375;48.540;9.268;2022-11-20T00:49:56;96837.22;;;4.80;100.00
4814;BME280;15375;48.540;9.268;2022-11-20T00:52:21;96849.94;;;4.83;100.00
4814;BME280;15375;48.540;9.268;2022-11-20T00:54:46;96849.56;;;4.81;100.00
4814;BME280;15375;48.540;9.268;2022-11-20T00:57:12;96858.06;;;4.83;100.00
4814;BME280;15375;48.540;9.268;2022-11-20T00:59:37;96870.38;;;4.87;100.00
4814;BME280;15375;48.540;9.268;2022-11-20T01:02:02;96858.84;;;4.73;100.00
4814;BME280;15375;48.540;9.268;2022-11-20T01:04:28;96839.22;;;4.58;100.00
4814;BME280;15375;48.540;9.268;2022-11-20T01:06:53;96871.22;;;4.70;100.00
4814;BME280;15375;48.540;9.268;2022-11-20T01:09:18;96850.03;;;4.58;100.00
4814;BME280;15375;48.540;9.268;2022-11-20T01:11:44;96856.97;;;4.56;100.00
4814;BME280;15375;48.540;9.268;2022-11-20T01:14:12;96872.78;;;4.57;100.00
4814;BME280;15375;48.540;9.268;2022-11-20T01:16:40;96862.38;;;4.41;100.00
4814;BME280;15375;48.540;9.268;2022-11-20T01:19:10;96851.63;;;4.27;100.00
4814;BME280;15375;48.540;9.268;2022-11-20T01:21:38;96827.72;;;4.01;100.00
4814;BME280;15375;48.540;9.268;2022-11-20T01:24:05;96859.31;;;4.18;100.00
4814;BME280;15375;48.540;9.268;2022-11-20T01:26:34;96866.28;;;4.12;100.00
4814;BME280;15375;48.540;9.268;2022-11-20T01:29:00;96875.91;;;4.17;100.00
4814;BME280;15375;48.540;9.268;2022-11-20T01:31:31;96897.13;;;4.22;100.00
4814;BME280;15375;48.540;9.268;2022-11-20T01:34:00;96886.69;;;4.17;100.00
4814;BME280;15375;48.540;9.268;2022-11-20T01:36:29;96865.50;;;3.87;100.00
4814;BME280;15375;48.540;9.268;2022-11-20T01:39:00;96878.59;;;3.96;100.00
4814;BME280;15375;48.540;9.268;2022-11-20T01:41:28;96847.34;;;3.63;100.00
4814;BME280;15375;48.540;9.268;2022-11-20T01:44:14;96884.75;;;3.82;100.00
4814;BME280;15375;48.540;9.268;2022-11-20T01:49:20;96850.03;;;3.56;100.00
4814;BME280;15375;48.540;9.268;2022-11-20T01:51:56;96855.81;;;3.51;100.00
4814;BME280;15375;48.540;9.268;2022-11-20T01:54:27;96853.13;;;3.51;100.00
4814;BME280;15375;48.540;9.268;2022-11-20T01:56:57;96858.91;;;3.56;100.00
4814;BME280;15375;48.540;9.268;2022-11-20T01:59:24;96834.22;;;3.40;100.00
4814;BME280;15375;48.540;9.268;2022-11-20T02:01:50;96863.91;;;3.58;100.00
4814;BME280;15375;48.540;9.268;2022-11-20T02:04:16;96870.06;;;3.58;100.00
4814;BME280;15375;48.540;9.268;2022-11-20T02:07:08;96859.69;;;3.50;100.00
4814;BME280;15375;48.540;9.268;2022-11-20T02:09:33;96879.31;;;3.54;100.00
4814;BME280;15375;48.540;9.268;2022-11-20T02:11:59;96851.16;;;3.34;100.00
4814;BME280;15375;48.540;9.268;2022-11-20T02:14:26;96882.38;;;3.49;100.00
4814;BME280;15375;48.540;9.268;2022-11-20T02:16:51;96837.63;;;3.16;100.00
4814;BME280;15375;48.540;9.268;2022-11-20T02:19:26;96875.47;;;3.51;100.00
4814;BME280;15375;48.540;9.268;2022-11-20T02:22:05;96863.88;;;3.40;100.00
4814;BME280;15375;48.540;9.268;2022-11-20T02:24:33;96880.09;;;3.47;100.00
4814;BME280;15375;48.540;9.268;2022-11-20T02:27:02;96883.94;;;3.50;100.00
4814;BME280;15375;48.540;9.268;2022-11-20T02:29:42;96880.09;;;3.54;100.00
4814;BME280;15375;48.540;9.268;2022-11-20T02:32:25;96878.94;;;3.59;100.00
4814;BME280;15375;48.540;9.268;2022-11-20T02:34:51;96861.59;;;3.49;100.00
4814;BME280;15375;48.540;9.268;2022-11-20T02:37:16;96866.63;;;3.65;100.00
4814;BME280;15375;48.540;9.268;2022-11-20T02:39:44;96853.16;;;3.65;100.00
4814;BME280;15375;48.540;9.268;2022-11-20T02:42:11;96855.47;;;3.91;100.00
4814;BME280;15375;48.540;9.268;2022-11-20T02:44:36;96840.81;;;3.88;100.00
4814;BME280;15375;48.540;9.268;2022-11-20T02:47:02;96858.56;;;4.07;100.00
4814;BME280;15375;48.540;9.268;2022-11-20T02:49:27;96814.63;;;3.93;100.00
4814;BME280;15375;48.540;9.268;2022-11-20T02:51:53;96859.31;;;4.32;100.00
4814;BME280;15375;48.540;9.268;2022-11-20T02:54:18;96848.53;;;4.32;100.00
4814;BME280;15375;48.540;9.268;2022-11-20T02:56:43;96855.44;;;4.47;100.00
4814;BME280;15375;48.540;9.268;2022-11-20T02:59:09;96829.22;;;4.44;100.00
4814;BME280;15375;48.540;9.268;2022-11-20T03:01:35;96818.38;;;4.62;100.00
4814;BME280;15375;48.540;9.268;2022-11-20T03:04:00;96785.63;;;4.39;100.00
4814;BME280;15375;48.540;9.268;2022-11-20T03:06:25;96822.56;;;4.77;100.00
4814;BME280;15375;48.540;9.268;2022-11-20T03:08:51;96824.09;;;4.85;100.00
4814;BME280;15375;48.540;9.268;2022-11-20T03:11:16;96848.28;;;5.13;100.00
4814;BME280;15375;48.540;9.268;2022-11-20T03:13:42;96819.00;;;4.94;100.00
4814;BME280;15375;48.540;9.268;2022-11-20T03:16:16;96813.59;;;4.98;100.00
4814;BME280;15375;48.540;9.268;2022-11-20T03:18:42;96839.38;;;5.16;100.00
4814;BME280;15375;48.540;9.268;2022-11-20T03:21:09;96843.63;;;5.14;100.00
4814;BME280;15375;48.540;9.268;2022-11-20T03:23:35;96834.81;;;4.99;100.00
4814;BME280;15375;48.540;9.268;2022-11-20T03:26:16;96846.44;;;4.93;100.00
4814;BME280;15375;48.540;9.268;2022-11-20T03:28:45;96846.44;;;4.89;100.00
4814;BME280;15375;48.540;9.268;2022-11-20T03:31:13;96846.06;;;4.84;100.00
4814;BME280;15375;48.540;9.268;2022-11-20T03:33:40;96784.84;;;4.49;100.00
4814;BME280;15375;48.540;9.268;2022-11-20T03:36:09;96844.16;;;4.88;100.00
4814;BME280;15375;48.540;9.268;2022-11-20T03:38:35;96818.34;;;4.69;100.00
4814;BME280;15375;48.540;9.268;2022-11-20T03:41:04;96832.16;;;4.92;100.00
4814;BME280;15375;48.540;9.268;2022-11-20T03:43:30;96857.09;;;5.21;100.00
4814;BME280;15375;48.540;9.268;2022-11-20T03:45:56;96855.22;;;5.18;100.00
4814;BME280;15375;48.540;9.268;2022-11-20T03:48:21;96840.19;;;5.06;100.00
4814;BME280;15375;48.540;9.268;2022-11-20T03:50:47;96825.56;;;5.00;100.00
4814;BME280;15375;48.540;9.268;2022-11-20T03:53:13;96820.53;;;4.99;100.00
4814;BME280;15375;48.540;9.268;2022-11-20T03:55:39;96854.75;;;5.30;100.00
4814;BME280;15375;48.540;9.268;2022-11-20T03:58:04;96813.16;;;5.10;100.00
4814;BME280;15375;48.540;9.268;2022-11-20T04:00:30;96834.28;;;5.29;100.00
4814;BME280;15375;48.540;9.268;2022-11-20T04:02:58;96838.91;;;5.32;100.00
4814;BME280;15375;48.540;9.268;2022-11-20T04:05:24;96813.50;;;5.19;100.00
4814;BME280;15375;48.540;9.268;2022-11-20T04:07:49;96781.53;;;5.00;100.00
4814;BME280;15375;48.540;9.268;2022-11-20T04:10:15;96834.63;;;5.38;100.00
4814;BME280;15375;48.540;9.268;2022-11-20T04:12:40;96846.94;;;5.46;100.00
4814;BME280;15375;48.540;9.268;2022-11-20T04:15:06;96838.03;;;5.49;100.00
4814;BME280;15375;48.540;9.268;2022-11-20T04:17:31;96842.66;;;5.56;100.00
4814;BME280;15375;48.540;9.268;2022-11-20T04:20:00;96828.72;;;5.54;100.00
4814;BME280;15375;48.540;9.268;2022-11-20T04:22:26;96820.97;;;5.59;100.00
4814;BME280;15375;48.540;9.268;2022-11-20T04:24:51;96844.09;;;5.71;100.00
4814;BME280;15375;48.540;9.268;2022-11-20T04:27:16;96838.66;;;5.74;100.00
4814;BME280;15375;48.540;9.268;2022-11-20T04:29:42;96853.28;;;5.88;100.00
4814;BME280;15375;48.540;9.268;2022-11-20T04:32:07;96825.53;;;5.73;100.00
4814;BME280;15375;48.540;9.268;2022-11-20T04:34:33;96826.31;;;5.73;100.00
4814;BME280;15375;48.540;9.268;2022-11-20T04:36:58;96851.72;;;5.87;100.00
4814;BME280;15375;48.540;9.268;2022-11-20T04:39:24;96845.19;;;5.80;100.00
4814;BME280;15375;48.540;9.268;2022-11-20T04:41:49;96831.72;;;5.70;100.00
4814;BME280;15375;48.540;9.268;2022-11-20T04:44:34;96821.72;;;5.63;100.00
4814;BME280;15375;48.540;9.268;2022-11-20T04:47:00;96830.59;;;5.67;100.00
4814;BME280;15375;48.540;9.268;2022-11-20T04:49:25;96846.31;;;5.83;100.00
4814;BME280;15375;48.540;9.268;2022-11-20T04:51:53;96853.28;;;5.88;100.00
4814;BME280;15375;48.540;9.268;2022-11-20T04:54:18;96817.06;;;5.64;100.00
4814;BME280;15375;48.540;9.268;2022-11-20T04:56:47;96838.59;;;5.81;100.00
4814;BME280;15375;48.540;9.268;2022-11-20T04:59:12;96835.13;;;5.81;100.00
4814;BME280;15375;48.540;9.268;2022-11-20T05:01:38;96814.28;;;5.74;100.00
4814;BME280;15375;48.540;9.268;2022-11-20T05:04:03;96825.53;;;5.73;100.00
4814;BME280;15375;48.540;9.268;2022-11-20T05:06:28;96841.66;;;5.91;100.00
4814;BME280;15375;48.540;9.268;2022-11-20T05:08:54;96786.22;;;5.54;100.00
4814;BME280;15375;48.540;9.268;2022-11-20T05:11:20;96848.59;;;5.92;100.00
4814;BME280;15375;48.540;9.268;2022-11-20T05:13:47;96849.00;;;5.90;100.00
4814;BME280;15375;48.540;9.268;2022-11-20T05:16:17;96838.13;;;5.97;100.00
4814;BME280;15375;48.540;9.268;2022-11-20T05:18:43;96839.69;;;5.95;99.85
4814;BME280;15375;48.540;9.268;2022-11-20T05:21:09;96841.59;;;5.98;100.00
4814;BME280;15375;48.540;9.268;2022-11-20T05:23:36;96841.22;;;5.96;99.74
4814;BME280;15375;48.540;9.268;2022-11-20T05:26:01;96836.25;;;5.91;99.74
4814;BME280;15375;48.540;9.268;2022-11-20T05:28:27;96820.84;;;5.77;99.48
4814;BME280;15375;48.540;9.268;2022-11-20T05:30:53;96814.66;;;5.76;100.00
4814;BME280;15375;48.540;9.268;2022-11-20T05:33:19;96847.44;;;5.93;100.00
4814;BME280;15375;48.540;9.268;2022-11-20T05:35:44;96803.53;;;5.67;99.46
4814;BME280;15375;48.540;9.268;2022-11-20T05:38:10;96853.59;;;5.97;99.97
4814;BME280;15375;48.540;9.268;2022-11-20T05:40:35;96842.38;;;5.95;100.00
4814;BME280;15375;48.540;9.268;2022-11-20T05:43:01;96800.81;;;5.71;99.44
4814;BME280;15375;48.540;9.268;2022-11-20T05:45:27;96811.56;;;5.78;98.39
4814;BME280;15375;48.540;9.268;2022-11-20T05:47:52;96824.69;;;5.79;99.26
4814;BME280;15375;48.540;9.268;2022-11-20T05:50:17;96823.91;;;5.79;98.95
4814;BME280;15375;48.540;9.268;2022-11-20T05:52:43;96815.84;;;5.75;98.76
4814;BME280;15375;48.540;9.268;2022-11-20T05:55:09;96829.72;;;5.81;99.09
4814;BME280;15375;48.540;9.268;2022-11-20T05:57:34;96834.72;;;5.82;98.64
4814;BME280;15375;48.540;9.268;2022-11-20T05:59:59;96811.28;;;5.65;99.08
4814;BME280;15375;48.540;9.268;2022-11-20T06:02:25;96822.03;;;5.72;97.42
4814;BME280;15375;48.540;9.268;2022-11-20T06:04:50;96805.47;;;5.67;97.23
4814;BME280;15375;48.540;9.268;2022-11-20T06:07:16;96785.09;;;5.52;97.02
4814;BME280;15375;48.540;9.268;2022-11-20T06:09:41;96784.41;;;5.41;97.10
4814;BME280;15375;48.540;9.268;2022-11-20T06:12:06;96813.22;;;5.65;96.76
4814;BME280;15375;48.540;9.268;2022-11-20T06:14:32;96818.59;;;5.68;96.64
4814;BME280;15375;48.540;9.268;2022-11-20T06:16:58;96793.63;;;5.47;97.34
4814;BME280;15375;48.540;9.268;2022-11-20T06:19:23;96782.50;;;5.38;98.00
4814;BME280;15375;48.540;9.268;2022-11-20T06:21:49;96802.50;;;5.51;98.72
4814;BME280;15375;48.540;9.268;2022-11-20T06:24:15;96805.16;;;5.54;99.26
4814;BME280;15375;48.540;9.268;2022-11-20T06:26:41;96822.47;;;5.64;99.29
4814;BME280;15375;48.540;9.268;2022-11-20T06:29:08;96808.28;;;5.53;99.90
4814;BME280;15375;48.540;9.268;2022-11-20T06:31:33;96832.16;;;5.65;99.63
4814;BME280;15375;48.540;9.268;2022-11-20T06:34:02;96821.75;;;5.56;100.00
4814;BME280;15375;48.540;9.268;2022-11-20T06:36:28;96816.75;;;5.55;100.00
4814;BME280;15375;48.540;9.268;2022-11-20T06:38:53;96776.72;;;5.32;100.00
4814;BME280;15375;48.540;9.268;2022-11-20T06:41:20;96841.00;;;5.69;100.00
4814;BME280;15375;48.540;9.268;2022-11-20T06:43:46;96849.13;;;5.69;100.00
4814;BME280;15375;48.540;9.268;2022-11-20T06:46:13;96831.78;;;5.59;100.00
4814;BME280;15375;48.540;9.268;2022-11-20T06:48:39;96835.59;;;5.69;100.00
4814;BME280;15375;48.540;9.268;2022-11-20T06:51:06;96816.34;;;5.56;100.00
4814;BME280;15375;48.540;9.268;2022-11-20T06:53:32;96859.50;;;5.77;100.00
4814;BME280;15375;48.540;9.268;2022-11-20T06:55:58;96849.47;;;5.78;100.00
4814;BME280;15375;48.540;9.268;2022-11-20T06:58:26;96850.22;;;5.78;100.00
4814;BME280;15375;48.540;9.268;2022-11-20T07:00:52;96804.06;;;5.45;100.00
4814;BME280;15375;48.540;9.268;2022-11-20T07:03:18;96830.63;;;5.60;100.00
4814;BME280;15375;48.540;9.268;2022-11-20T07:05:43;96817.94;;;5.50;99.70
4814;BME280;15375;48.540;9.268;2022-11-20T07:08:11;96829.03;;;5.66;100.00
4814;BME280;15375;48.540;9.268;2022-11-20T07:10:37;96809.03;;;5.53;99.63
4814;BME280;15375;48.540;9.268;2022-11-20T07:13:02;96826.38;;;5.59;100.00
4814;BME280;15375;48.540;9.268;2022-11-20T07:15:28;96850.59;;;5.80;100.00
4814;BME280;15375;48.540;9.268;2022-11-20T07:17:54;96840.25;;;5.68;100.00
4814;BME280;15375;48.540;9.268;2022-11-20T07:20:19;96828.25;;;5.69;100.00
4814;BME280;15375;48.540;9.268;2022-11-20T07:22:45;96834.78;;;5.72;100.00
4814;BME280;15375;48.540;9.268;2022-11-20T07:25:10;96837.44;;;5.79;100.00
4814;BME280;15375;48.540;9.268;2022-11-20T07:27:35;96840.19;;;5.75;100.00
4814;BME280;15375;48.540;9.268;2022-11-20T07:30:02;96861.75;;;5.90;100.00
4814;BME280;15375;48.540;9.268;2022-11-20T07:32:27;96807.09;;;5.54;100.00
4814;BME280;15375;48.540;9.268;2022-11-20T07:34:53;96834.78;;;5.72;100.00
4814;BME280;15375;48.540;9.268;2022-11-20T07:37:18;96837.84;;;5.81;100.00
4814;BME280;15375;48.540;9.268;2022-11-20T07:39:43;96860.91;;;6.00;100.00
4814;BME280;15375;48.540;9.268;2022-11-20T07:42:09;96764.34;;;5.38;99.78
4814;BME280;15375;48.540;9.268;2022-11-20T07:44:35;96859.75;;;6.01;100.00
4814;BME280;15375;48.540;9.268;2022-11-20T07:47:01;96859.34;;;6.02;100.00
4814;BME280;15375;48.540;9.268;2022-11-20T07:49:27;96832.41;;;5.88;100.00
4814;BME280;15375;48.540;9.268;2022-11-20T07:51:52;96821.97;;;5.79;100.00
4814;BME280;15375;48.540;9.268;2022-11-20T07:54:19;96808.53;;;5.69;100.00
4814;BME280;15375;48.540;9.268;2022-11-20T07:56:45;96840.47;;;5.95;100.00
4814;BME280;15375;48.540;9.268;2022-11-20T07:59:11;96840.47;;;5.92;99.88
4814;BME280;15375;48.540;9.268;2022-11-20T08:01:37;96851.94;;;6.10;100.00
4814;BME280;15375;48.540;9.268;2022-11-20T08:04:03;96833.03;;;6.06;100.00
4814;BME280;15375;48.540;9.268;2022-11-20T08:06:28;96858.75;;;6.28;100.00
4814;BME280;15375;48.540;9.268;2022-11-20T08:08:53;96772.91;;;5.81;99.05
4814;BME280;15375;48.540;9.268;2022-11-20T08:11:19;96855.19;;;6.35;98.47
4814;BME280;15375;48.540;9.268;2022-11-20T08:14:03;96837.03;;;6.35;98.10
4814;BME280;15375;48.540;9.268;2022-11-20T08:16:41;96835.72;;;6.47;97.56
4814;BME280;15375;48.540;9.268;2022-11-20T08:19:07;96874.50;;;6.81;96.66
4814;BME280;15375;48.540;9.268;2022-11-20T08:21:33;96858.38;;;6.67;96.57
4814;BME280;15375;48.540;9.268;2022-11-20T08:23:59;96872.16;;;6.83;96.98
4814;BME280;15375;48.540;9.268;2022-11-20T08:26:25;96836.94;;;6.42;95.68
4814;BME280;15375;48.540;9.268;2022-11-20T08:28:55;96867.31;;;6.64;95.69
4814;BME280;15375;48.540;9.268;2022-11-20T08:31:21;96853.94;;;6.47;96.67
4814;BME280;15375;48.540;9.268;2022-11-20T08:33:46;96898.13;;;6.81;96.88
4814;BME280;15375;48.540;9.268;2022-11-20T08:36:12;96889.66;;;6.75;95.92
4814;BME280;15375;48.540;9.268;2022-11-20T08:38:37;96874.69;;;6.60;95.71
4814;BME280;15375;48.540;9.268;2022-11-20T08:41:04;96907.13;;;6.71;96.58
4814;BME280;15375;48.540;9.268;2022-11-20T08:43:49;96874.47;;;6.44;96.98
4814;BME280;15375;48.540;9.268;2022-11-20T08:46:15;96913.00;;;6.62;97.22
4814;BME280;15375;48.540;9.268;2022-11-20T08:48:40;96864.16;;;6.28;97.74
4814;BME280;15375;48.540;9.268;2022-11-20T08:51:06;96870.28;;;6.36;98.76
4814;BME280;15375;48.540;9.268;2022-11-20T08:53:31;96895.22;;;6.61;98.31
4814;BME280;15375;48.540;9.268;2022-11-20T08:55:57;96889.81;;;6.61;99.00
4814;BME280;15375;48.540;9.268;2022-11-20T08:58:23;96894.34;;;6.71;97.53
4814;BME280;15375;48.540;9.268;2022-11-20T09:00:49;96912.53;;;6.74;97.87
4814;BME280;15375;48.540;9.268;2022-11-20T09:03:14;96879.03;;;6.54;98.43
4814;BME280;15375;48.540;9.268;2022-11-20T09:05:39;96856.69;;;6.43;97.10
4814;BME280;15375;48.540;9.268;2022-11-20T09:08:04;96895.91;;;6.69;97.09
4814;BME280;15375;48.540;9.268;2022-11-20T09:10:30;96900.97;;;6.67;98.24
4814;BME280;15375;48.540;9.268;2022-11-20T09:12:56;96916.38;;;6.77;97.97
4814;BME280;15375;48.540;9.268;2022-11-20T09:15:22;96919.38;;;6.82;97.88
4814;BME280;15375;48.540;9.268;2022-11-20T09:17:55;96902.75;;;6.80;99.26
4814;BME280;15375;48.540;9.268;2022-11-20T09:20:21;96920.50;;;6.88;100.00
4814;BME280;15375;48.540;9.268;2022-11-20T09:22:46;96915.09;;;6.85;97.80
4814;BME280;15375;48.540;9.268;2022-11-20T09:25:12;96905.84;;;6.82;99.50
4814;BME280;15375;48.540;9.268;2022-11-20T09:27:37;96909.69;;;6.85;98.60
4814;BME280;15375;48.540;9.268;2022-11-20T09:30:03;96906.59;;;6.86;98.74
4814;BME280;15375;48.540;9.268;2022-11-20T09:32:29;96915.16;;;6.81;98.59
4814;BME280;15375;48.540;9.268;2022-11-20T09:34:54;96902.84;;;6.73;98.83
4814;BME280;15375;48.540;9.268;2022-11-20T09:37:19;96908.06;;;6.91;98.54
4814;BME280;15375;48.540;9.268;2022-11-20T09:39:45;96895.44;;;6.77;99.38
4814;BME280;15375;48.540;9.268;2022-11-20T09:42:20;96914.22;;;6.95;100.00
4814;BME280;15375;48.540;9.268;2022-11-20T09:45:13;96940.47;;;7.05;100.00
4814;BME280;15375;48.540;9.268;2022-11-20T09:50:30;96938.53;;;7.05;100.00
4814;BME280;15375;48.540;9.268;2022-11-20T09:55:36;96930.63;;;6.81;100.00
4814;BME280;15375;48.540;9.268;2022-11-20T09:58:06;96936.09;;;6.77;100.00
4814;BME280;15375;48.540;9.268;2022-11-20T10:00:32;96951.13;;;6.85;100.00
4814;BME280;15375;48.540;9.268;2022-11-20T10:03:14;96961.66;;;6.76;100.00
4814;BME280;15375;48.540;9.268;2022-11-20T10:05:48;96960.59;;;6.67;100.00
4814;BME280;15375;48.540;9.268;2022-11-20T10:08:55;96960.59;;;6.63;100.00
4814;BME280;15375;48.540;9.268;2022-11-20T10:11:39;96949.38;;;6.65;100.00
4814;BME280;15375;48.540;9.268;2022-11-20T10:17:46;96919.25;;;6.59;100.00
4814;BME280;15375;48.540;9.268;2022-11-20T10:22:42;96945.03;;;6.74;100.00
4814;BME280;15375;48.540;9.268;2022-11-20T10:25:22;96949.19;;;6.82;100.00
4814;BME280;15375;48.540;9.268;2022-11-20T10:28:15;96951.53;;;6.84;100.00
4814;BME280;15375;48.540;9.268;2022-11-20T10:30:45;96937.72;;;6.71;100.00
4814;BME280;15375;48.540;9.268;2022-11-20T10:33:19;96938.47;;;6.72;100.00
4814;BME280;15375;48.540;9.268;2022-11-20T10:38:39;96942.69;;;6.76;100.00
4814;BME280;15375;48.540;9.268;2022-11-20T10:41:06;96936.53;;;6.72;100.00
4814;BME280;15375;48.540;9.268;2022-11-20T10:44:15;96955.06;;;6.77;100.00
4814;BME280;15375;48.540;9.268;2022-11-20T10:47:04;96950.78;;;6.80;100.00
4814;BME280;15375;48.540;9.268;2022-11-20T10:49:30;96909.84;;;6.67;100.00
4814;BME280;15375;48.540;9.268;2022-11-20T10:52:23;96929.78;;;6.87;100.00
4814;BME280;15375;48.540;9.268;2022-11-20T10:55:01;96892.09;;;6.63;100.00
4814;BME280;15375;48.540;9.268;2022-11-20T11:00:15;96909.31;;;6.83;100.00
4814;BME280;15375;48.540;9.268;2022-11-20T11:03:00;96908.06;;;6.91;100.00
4814;BME280;15375;48.540;9.268;2022-11-20T11:08:17;96902.56;;;7.01;100.00
4814;BME280;15375;48.540;9.268;2022-11-20T11:10:53;96925.19;;;7.22;100.00
4814;BME280;15375;48.540;9.268;2022-11-20T11:13:25;96924.75;;;7.23;100.00
4814;BME280;15375;48.540;9.268;2022-11-20T11:15:52;96911.66;;;7.18;100.00
4814;BME280;15375;48.540;9.268;2022-11-20T11:18:32;96881.66;;;6.98;100.00
4814;BME280;15375;48.540;9.268;2022-11-20T11:21:00;96902.34;;;7.19;100.00
4814;BME280;15375;48.540;9.268;2022-11-20T11:23:41;96894.31;;;7.42;100.00
4814;BME280;15375;48.540;9.268;2022-11-20T11:26:19;96898.44;;;7.54;100.00
4814;BME280;15375;48.540;9.268;2022-11-20T11:28:56;96895.00;;;7.50;100.00
4814;BME280;15375;48.540;9.268;2022-11-20T11:31:42;96896.88;;;7.53;100.00
4814;BME280;15375;48.540;9.268;2022-11-20T11:34:14;96878.53;;;7.34;100.00
4814;BME280;15375;48.540;9.268;2022-11-20T11:36:40;96878.31;;;7.51;100.00
4814;BME280;15375;48.540;9.268;2022-11-20T11:39:12;96888.97;;;7.92;100.00
4814;BME280;15375;48.540;9.268;2022-11-20T11:41:39;96881.84;;;8.02;100.00
4814;BME280;15375;48.540;9.268;2022-11-20T11:44:24;96851.28;;;8.21;100.00
4814;BME280;15375;48.540;9.268;2022-11-20T11:47:30;96855.50;;;8.25;98.83
4814;BME280;15375;48.540;9.268;2022-11-20T11:50:16;96863.00;;;8.64;97.10
4814;BME280;15375;48.540;9.268;2022-11-20T11:52:56;96845.75;;;8.51;95.90
4814;BME280;15375;48.540;9.268;2022-11-20T11:55:31;96866.50;;;8.42;96.68
4814;BME280;15375;48.540;9.268;2022-11-20T12:00:35;96857.72;;;8.77;95.00
4814;BME280;15375;48.540;9.268;2022-11-20T12:05:40;96850.22;;;9.24;91.01
4814;BME280;15375;48.540;9.268;2022-11-20T12:08:36;96849.94;;;8.98;90.32
4814;BME280;15375;48.540;9.268;2022-11-20T12:11:16;96842.16;;;8.58;91.58
4814;BME280;15375;48.540;9.268;2022-11-20T12:13:53;96830.75;;;8.86;90.78
4814;BME280;15375;48.540;9.268;2022-11-20T12:16:21;96784.34;;;8.54;91.06
4814;BME280;15375;48.540;9.268;2022-11-20T12:18:49;96837.59;;;8.51;91.66
4814;BME280;15375;48.540;9.268;2022-11-20T12:37:46;96830.41;;;7.91;95.17
4814;BME280;15375;48.540;9.268;2022-11-20T12:40:23;96832.47;;;7.84;95.84
4814;BME280;15375;48.540;9.268;2022-11-20T12:43:06;96834.88;;;7.78;96.89
4814;BME280;15375;48.540;9.268;2022-11-20T12:46:06;96838.63;;;7.88;96.73
4814;BME280;15375;48.540;9.268;2022-11-20T12:48:56;96837.81;;;8.14;94.67
4814;BME280;15375;48.540;9.268;2022-11-20T12:51:51;96833.97;;;8.11;94.94
4814;BME280;15375;48.540;9.268;2022-11-20T13:03:17;96841.38;;;8.57;88.01
4814;BME280;15375;48.540;9.268;2022-11-20T13:08:40;96793.75;;;8.49;83.09
4814;BME280;15375;48.540;9.268;2022-11-20T13:16:32;96813.38;;;8.14;88.20
4814;BME280;15375;48.540;9.268;2022-11-20T13:19:04;96827.94;;;8.27;88.73
4814;BME280;15375;48.540;9.268;2022-11-20T13:21:41;96834.06;;;8.31;87.11
4814;BME280;15375;48.540;9.268;2022-11-20T13:24:19;96835.75;;;8.21;89.93
4814;BME280;15375;48.540;9.268;2022-11-20T13:26:45;96832.25;;;8.21;89.23
4814;BME280;15375;48.540;9.268;2022-11-20T13:29:16;96802.56;;;7.87;89.90
4814;BME280;15375;48.540;9.268;2022-11-20T13:31:44;96809.91;;;7.90;89.76
4814;BME280;15375;48.540;9.268;2022-11-20T13:34:34;96813.00;;;7.89;90.04
4814;BME280;15375;48.540;9.268;2022-11-20T13:36:59;96822.50;;;7.77;91.78
4814;BME280;15375;48.540;9.268;2022-11-20T13:39:33;96835.03;;;7.94;92.41
4814;BME280;15375;48.540;9.268;2022-11-20T13:42:21;96804.94;;;7.58;94.86
4814;BME280;15375;48.540;9.268;2022-11-20T13:44:54;96821.78;;;7.73;94.54
4814;BME280;15375;48.540;9.268;2022-11-20T13:47:25;96827.97;;;7.73;94.71
4814;BME280;15375;48.540;9.268;2022-11-20T13:49:55;96819.13;;;7.69;92.91
4814;BME280;15375;48.540;9.268;2022-11-20T13:55:23;96794.03;;;7.62;92.60
4814;BME280;15375;48.540;9.268;2022-11-20T13:57:59;96792.94;;;7.56;89.25
4814;BME280;15375;48.540;9.268;2022-11-20T14:00:29;96788.44;;;7.72;89.69
4814;BME280;15375;48.540;9.268;2022-11-20T14:03:29;96790.22;;;7.83;88.82
4814;BME280;15375;48.540;9.268;2022-11-20T14:05:59;96796.13;;;8.01;88.83
4814;BME280;15375;48.540;9.268;2022-11-20T14:11:19;96742.81;;;7.64;88.70
4814;BME280;15375;48.540;9.268;2022-11-20T14:16:20;96769.06;;;7.70;88.51
4814;BME280;15375;48.540;9.268;2022-11-20T14:18:46;96777.03;;;7.58;89.49
4814;BME280;15375;48.540;9.268;2022-11-20T14:21:11;96770.53;;;7.52;89.79
4814;BME280;15375;48.540;9.268;2022-11-20T14:23:45;96761.75;;;7.44;88.19
4814;BME280;15375;48.540;9.268;2022-11-20T14:26:16;96761.63;;;7.51;89.31
4814;BME280;15375;48.540;9.268;2022-11-20T14:28:48;96728.44;;;7.40;84.95
4814;BME280;15375;48.540;9.268;2022-11-20T14:31:23;96725.81;;;7.37;84.73
4814;BME280;15375;48.540;9.268;2022-11-20T14:33:48;96756.50;;;7.57;83.36
4814;BME280;15375;48.540;9.268;2022-11-20T14:36:19;96778.00;;;7.71;84.65